KIFP/IFP METAR and TAF weather

Enter ICAO airport designator
Station Type Date Time Source
KIFP METAR 2019/10/15 18:48 UTC NOAA

KIFP 151848Z 36021KT 10SM SKC 29/M04 A2999


Station Type Date Time Source
KIFP Decoded METAR 2019/10/15 18:48 UTC NOAA

Bullhead City, Laughlin/Bullhead International Airport, AZ, United States (KIFP) 35-09-27N 114-33-34W
Oct 15, 2019 - 02:48 PM EDT / 2019.10.15 1848 UTC
Wind: from the N (360 degrees) at 24 MPH (21 KT):0
Visibility: 10 mile(s):0
Sky conditions: clear
Temperature: 84 F (29 C)
Dew Point: 24 F (-4 C)
Relative Humidity: 11%
Pressure (altimeter): 29.99 in. Hg (1015 hPa)
ob: KIFP 151848Z 36021KT 10SM SKC 29/M04 A2999
cycle: 19

Station Type Date Time Source
KIFP TAF 2019/10/15 18:36 UTC NOAA

TAF KIFP 151735Z 1518/1618 36010G20KT P6SM SKC
FM152100 34010KT P6SM SKC
FM160100 03005KT P6SM SKC

Example: see airport list